Time;durP1;ratioP1;P1;durP2;ratioP2;P2;SDS_P1;SDS_P2;PMS_P1;PMS_P2;Temp;Humidity;BMP_temperature;BMP_pressure;BME280_temperature;BME280_humidity;BME280_pressure;Samples;Min_cycle;Max_cycle;Signal;HPM_P1;HPM_P2
2022/01/02 00:00:40;;;;;;;6.03;2.92;;;11.80;99.40;;;;;;6214110;23;20126;-82
2022/01/02 00:03:08;;;;;;;6.43;3.25;;;11.80;99.40;;;;;;6214337;23;20332;-80
2022/01/02 00:05:37;;;;;;;6.38;2.80;;;11.80;99.40;;;;;;6214050;23;20011;-80
2022/01/02 00:08:08;;;;;;;4.95;2.70;;;11.80;99.40;;;;;;6213999;23;20004;-82
2022/01/02 00:10:51;;;;;;;5.67;2.80;;;11.80;99.40;;;;;;6239330;23;20446;-81
2022/01/02 00:13:24;;;;;;;5.32;2.60;;;11.80;99.30;;;;;;6215759;23;20240;-80
2022/01/02 00:15:52;;;;;;;5.88;2.90;;;11.80;99.30;;;;;;6213888;23;20058;-83
2022/01/02 00:18:19;;;;;;;6.07;3.10;;;11.80;99.30;;;;;;6213998;23;20453;-80
2022/01/02 00:20:48;;;;;;;6.15;2.90;;;11.80;99.60;;;;;;6214143;23;20004;-80
2022/01/02 00:23:23;;;;;;;6.40;3.28;;;11.80;99.40;;;;;;6213955;23;20015;-80
2022/01/02 00:25:53;;;;;;;5.43;3.00;;;11.80;99.50;;;;;;6213848;23;20004;-83
2022/01/02 00:28:19;;;;;;;6.70;3.13;;;11.80;99.60;;;;;;6239405;23;20004;-81
2022/01/02 00:30:47;;;;;;;6.32;3.17;;;11.80;99.70;;;;;;6214028;23;20039;-81
2022/01/02 00:33:13;;;;;;;6.70;3.10;;;11.80;99.80;;;;;;6213947;23;20012;-81
2022/01/02 00:35:39;;;;;;;5.45;3.10;;;11.80;99.90;;;;;;6213599;23;20005;-81
2022/01/02 00:38:06;;;;;;;6.15;3.00;;;11.70;99.90;;;;;;6213807;23;20008;-81
2022/01/02 00:40:41;;;;;;;6.07;2.97;;;11.70;99.90;;;;;;6213573;23;20227;-81
2022/01/02 00:43:12;;;;;;;5.60;3.03;;;11.70;99.90;;;;;;6213912;23;20440;-81
2022/01/02 00:45:45;;;;;;;6.53;3.25;;;11.70;99.90;;;;;;6215209;23;20059;-81
2022/01/02 00:48:26;;;;;;;6.47;2.97;;;11.70;99.90;;;;;;6213776;23;20000;-80
2022/01/02 00:50:56;;;;;;;5.82;3.10;;;11.70;99.90;;;;;;6213865;23;20032;-81
2022/01/02 00:53:25;;;;;;;6.43;3.30;;;11.70;99.90;;;;;;6215335;23;20317;-82
2022/01/02 00:55:56;;;;;;;5.72;2.85;;;11.70;99.90;;;;;;6213180;23;20091;-82
2022/01/02 00:58:29;;;;;;;5.63;3.00;;;11.70;99.90;;;;;;6213926;23;20040;-82
2022/01/02 01:00:58;;;;;;;5.68;2.95;;;11.70;99.90;;;;;;6213891;23;20009;-81
2022/01/02 01:03:29;;;;;;;5.45;3.20;;;11.70;99.90;;;;;;6211507;23;20340;-81
2022/01/02 01:05:55;;;;;;;5.55;2.90;;;11.70;99.90;;;;;;6213363;23;20391;-81
2022/01/02 01:08:23;;;;;;;5.68;2.88;;;11.70;99.90;;;;;;6215303;23;20446;-82
2022/01/02 01:10:50;;;;;;;5.72;3.03;;;11.70;99.90;;;;;;6213703;23;19997;-81
2022/01/02 01:13:16;;;;;;;5.40;2.90;;;11.60;99.90;;;;;;6213888;23;20011;-81
2022/01/02 01:15:42;;;;;;;7.22;3.17;;;11.70;99.90;;;;;;6213389;23;20032;-81
2022/01/02 01:18:08;;;;;;;5.13;2.65;;;11.70;99.90;;;;;;6213452;23;20013;-81
2022/01/02 01:20:42;;;;;;;5.22;2.88;;;11.70;99.90;;;;;;6213779;23;20009;-82
2022/01/02 01:23:11;;;;;;;5.40;2.90;;;11.70;99.90;;;;;;6213703;23;20083;-81
2022/01/02 01:25:39;;;;;;;5.65;2.90;;;11.70;99.90;;;;;;6213113;23;20035;-81
2022/01/02 01:28:04;;;;;;;5.60;2.90;;;11.70;99.90;;;;;;6213809;23;20388;-80
2022/01/02 01:30:30;;;;;;;6.38;2.80;;;11.70;99.90;;;;;;6215300;23;20004;-81
2022/01/02 01:32:55;;;;;;;6.68;3.08;;;11.70;99.90;;;;;;6213559;23;20431;-81
2022/01/02 01:35:22;;;;;;;6.65;2.80;;;11.70;99.90;;;;;;6213349;23;20001;-81
2022/01/02 01:37:49;;;;;;;5.50;2.88;;;11.70;99.90;;;;;;6213695;23;20001;-81
2022/01/02 01:40:16;;;;;;;6.22;2.80;;;11.70;99.90;;;;;;6213284;23;20471;-80
2022/01/02 01:42:54;;;;;;;5.82;3.08;;;11.70;99.90;;;;;;6213583;23;20460;-81
2022/01/02 01:47:53;;;;;;;5.15;2.80;;;11.70;99.90;;;;;;6215758;23;20005;-81
2022/01/02 01:50:21;;;;;;;6.95;2.65;;;11.70;99.90;;;;;;6214215;23;20031;-81
2022/01/02 01:52:47;;;;;;;5.82;2.72;;;11.70;99.90;;;;;;6215387;23;20511;-81
2022/01/02 01:55:14;;;;;;;5.13;2.75;;;11.70;99.90;;;;;;6215026;23;20046;-81
2022/01/02 01:57:40;;;;;;;4.88;2.50;;;11.70;99.90;;;;;;6215323;23;20390;-81
2022/01/02 02:00:13;;;;;;;5.28;2.60;;;11.70;99.90;;;;;;6215086;23;20032;-81
2022/01/02 02:02:39;;;;;;;5.25;2.67;;;11.70;99.90;;;;;;6217092;23;19996;-81
2022/01/02 02:05:05;;;;;;;6.78;2.90;;;11.70;99.90;;;;;;6214466;23;20012;-80
2022/01/02 02:07:39;;;;;;;5.30;2.70;;;11.70;99.90;;;;;;6215241;23;19997;-81
2022/01/02 02:10:13;;;;;;;6.35;2.80;;;11.70;99.90;;;;;;6215221;23;20004;-80
2022/01/02 02:12:41;;;;;;;5.35;2.80;;;11.70;99.90;;;;;;6240620;23;20349;-80
2022/01/02 02:15:09;;;;;;;6.00;3.00;;;11.70;99.90;;;;;;6215018;23;20012;-80
2022/01/02 02:17:34;;;;;;;5.43;2.80;;;11.70;99.90;;;;;;6240261;23;20012;-81
2022/01/02 02:20:17;;;;;;;5.40;2.83;;;11.70;99.80;;;;;;6214939;23;20008;-81
2022/01/02 02:22:47;;;;;;;5.57;2.70;;;11.70;99.80;;;;;;6240220;23;20004;-81
2022/01/02 02:25:16;;;;;;;5.38;2.70;;;11.70;99.80;;;;;;6214156;23;20443;-82
2022/01/02 02:28:15;;;;;;;6.15;2.45;;;11.70;99.90;;;;;;6216345;23;20376;-81
2022/01/02 02:30:44;;;;;;;5.55;2.30;;;11.70;99.70;;;;;;6216342;23;19996;-81
2022/01/02 02:33:11;;;;;;;5.60;3.10;;;11.70;99.80;;;;;;6240266;23;20008;-82
2022/01/02 02:35:38;;;;;;;5.60;2.90;;;11.70;99.80;;;;;;6216369;23;20005;-81
2022/01/02 02:38:07;;;;;;;5.45;2.80;;;11.70;99.70;;;;;;6214603;23;20440;-82
2022/01/02 02:40:32;;;;;;;5.50;2.90;;;11.70;99.70;;;;;;6214302;23;20012;-81
2022/01/02 02:43:06;;;;;;;6.35;2.58;;;11.70;99.70;;;;;;6214586;23;20431;-82
2022/01/02 02:51:11;;;;;;;5.22;2.78;;;11.70;99.70;;;;;;6216181;23;20008;-81
2022/01/02 02:53:43;;;;;;;5.25;2.40;;;11.70;99.70;;;;;;6214420;23;20005;-81
2022/01/02 02:56:23;;;;;;;5.13;2.78;;;11.70;99.70;;;;;;6214220;23;20004;-82
2022/01/02 02:58:52;;;;;;;5.18;2.60;;;11.70;99.70;;;;;;6214989;23;20004;-81
2022/01/02 03:01:20;;;;;;;5.95;2.80;;;11.70;99.60;;;;;;6214715;23;20545;-82
2022/01/02 03:03:47;;;;;;;5.57;2.83;;;11.70;99.60;;;;;;6214481;23;20011;-82
2022/01/02 03:06:13;;;;;;;5.40;2.78;;;11.70;99.60;;;;;;6215464;23;20005;-81
2022/01/02 03:08:43;;;;;;;6.13;3.00;;;11.70;99.60;;;;;;6214524;23;20047;-79
2022/01/02 03:11:14;;;;;;;5.20;2.88;;;11.70;99.60;;;;;;6214415;23;20443;-81
2022/01/02 03:13:40;;;;;;;6.80;2.88;;;11.70;99.60;;;;;;6214560;23;20317;-81
2022/01/02 03:16:06;;;;;;;6.15;3.10;;;11.70;99.60;;;;;;6214198;23;20428;-82
2022/01/02 03:18:32;;;;;;;5.25;2.72;;;11.70;99.70;;;;;;6214220;23;20016;-81
2022/01/02 03:20:58;;;;;;;5.00;2.70;;;11.70;99.60;;;;;;6214376;23;20011;-81
2022/01/02 03:23:23;;;;;;;6.25;2.95;;;11.70;99.60;;;;;;6214271;23;20004;-82
2022/01/02 03:25:49;;;;;;;4.97;2.83;;;11.70;99.60;;;;;;6214084;23;20336;-82
2022/01/02 03:28:15;;;;;;;5.63;3.00;;;11.70;99.70;;;;;;6214535;23;20008;-81
2022/01/02 03:30:41;;;;;;;4.63;2.40;;;11.70;99.60;;;;;;6214318;23;20088;-80
2022/01/02 03:33:07;;;;;;;6.50;2.72;;;11.70;99.60;;;;;;6178672;23;20041;-80
2022/01/02 03:35:33;;;;;;;6.78;3.10;;;11.70;99.60;;;;;;6126854;23;20002;-79
2022/01/02 03:37:58;;;;;;;6.00;3.03;;;11.80;99.60;;;;;;6127593;23;20330;-79
2022/01/02 03:40:24;;;;;;;6.80;3.08;;;11.70;99.60;;;;;;6126998;23;20002;-80
2022/01/02 03:42:50;;;;;;;5.80;2.90;;;12.70;99.90;;;;;;6127454;23;20002;-78
2022/01/02 03:45:15;;;;;;;6.43;3.17;;;11.80;99.60;;;;;;6126857;23;20014;-79
2022/01/02 03:47:41;;;;;;;5.93;2.92;;;11.70;99.60;;;;;;6127460;23;20002;-78
2022/01/02 03:50:07;;;;;;;5.60;2.65;;;11.70;99.60;;;;;;6127131;23;19998;-78
2022/01/02 03:52:32;;;;;;;5.38;3.03;;;11.70;99.60;;;;;;6127302;23;20006;-78
2022/01/02 03:54:58;;;;;;;5.95;3.08;;;11.70;99.60;;;;;;6126519;23;20117;-79
2022/01/02 03:57:24;;;;;;;6.15;3.33;;;11.70;99.60;;;;;;6126686;23;20061;-78
2022/01/02 03:59:50;;;;;;;6.72;3.50;;;11.70;99.70;;;;;;6126256;23;20252;-78
2022/01/02 04:02:15;;;;;;;6.05;3.20;;;11.70;99.60;;;;;;6124732;23;20341;-77
2022/01/02 04:04:41;;;;;;;5.88;3.03;;;11.70;99.50;;;;;;6126115;23;20006;-77
2022/01/02 04:07:06;;;;;;;5.32;2.78;;;11.80;99.40;;;;;;6125153;23;20005;-78
2022/01/02 04:09:32;;;;;;;5.03;2.90;;;11.80;99.40;;;;;;6126458;23;20009;-78
2022/01/02 04:11:57;;;;;;;5.45;2.78;;;11.80;99.20;;;;;;6124836;23;20009;-80
2022/01/02 04:14:24;;;;;;;6.72;3.08;;;11.80;99.10;;;;;;6124430;23;20010;-78
2022/01/02 04:16:49;;;;;;;7.13;2.90;;;11.80;99.10;;;;;;6124711;23;20010;-78
2022/01/02 04:19:15;;;;;;;6.45;2.83;;;11.80;99.00;;;;;;6124764;23;20081;-77
2022/01/02 04:21:40;;;;;;;5.38;3.00;;;11.80;99.00;;;;;;6124627;23;20006;-77
2022/01/02 04:24:06;;;;;;;5.85;2.97;;;11.80;99.00;;;;;;6124662;23;20519;-78
2022/01/02 04:26:31;;;;;;;6.00;3.20;;;11.80;99.00;;;;;;6124645;23;20009;-78
2022/01/02 04:28:57;;;;;;;5.53;3.10;;;11.80;99.00;;;;;;6124879;23;20092;-78
2022/01/02 04:31:23;;;;;;;6.10;3.10;;;11.80;99.00;;;;;;6126477;23;20001;-77
2022/01/02 04:33:49;;;;;;;6.13;2.97;;;11.80;98.90;;;;;;6124545;23;20022;-77
2022/01/02 04:36:14;;;;;;;5.13;2.92;;;11.80;98.90;;;;;;6124601;23;20441;-77
2022/01/02 04:38:42;;;;;;;6.97;3.05;;;11.80;98.90;;;;;;6124697;23;20010;-77
2022/01/02 04:41:08;;;;;;;6.93;3.03;;;11.80;98.90;;;;;;6126202;23;20053;-79
2022/01/02 04:43:33;;;;;;;5.97;3.20;;;11.90;99.00;;;;;;6126178;23;20392;-79
2022/01/02 04:45:59;;;;;;;6.95;3.40;;;11.80;99.00;;;;;;6126222;23;20073;-79
2022/01/02 04:48:24;;;;;;;5.40;3.10;;;11.80;99.10;;;;;;6126198;23;20073;-79
2022/01/02 04:50:50;;;;;;;7.00;3.38;;;11.80;99.20;;;;;;6124769;23;20001;-79
2022/01/02 04:53:16;;;;;;;6.45;3.17;;;11.80;99.30;;;;;;6126147;23;20006;-79
2022/01/02 04:55:42;;;;;;;6.07;3.15;;;11.80;99.40;;;;;;6124747;23;20006;-77
2022/01/02 04:58:08;;;;;;;6.13;3.35;;;11.80;99.40;;;;;;6124929;23;20006;-78
2022/01/02 05:00:33;;;;;;;6.88;3.55;;;11.80;99.40;;;;;;6124891;23;20013;-77
2022/01/02 05:02:59;;;;;;;5.97;3.42;;;11.70;99.50;;;;;;6124656;23;20338;-79
2022/01/02 05:05:24;;;;;;;7.50;3.53;;;11.70;99.50;;;;;;6125980;23;20073;-79
2022/01/02 05:07:50;;;;;;;6.75;3.50;;;11.70;99.50;;;;;;6124672;23;20514;-77
2022/01/02 05:10:16;;;;;;;6.95;3.90;;;11.70;99.50;;;;;;6124669;23;20089;-77
2022/01/02 05:12:41;;;;;;;7.32;3.47;;;11.70;99.60;;;;;;6124653;23;20002;-78
2022/01/02 05:15:08;;;;;;;7.53;3.40;;;11.70;99.60;;;;;;6124365;23;20214;-77
2022/01/02 05:17:33;;;;;;;7.20;3.35;;;11.70;99.60;;;;;;6126360;23;20014;-79
2022/01/02 05:19:59;;;;;;;6.60;3.20;;;11.70;99.60;;;;;;6124594;23;20334;-78
2022/01/02 05:22:24;;;;;;;7.53;3.65;;;11.70;99.60;;;;;;6124758;23;20041;-77
2022/01/02 05:24:50;;;;;;;7.85;3.35;;;11.70;99.60;;;;;;6124709;23;20006;-78
2022/01/02 05:27:15;;;;;;;6.30;3.40;;;11.70;99.60;;;;;;6126597;23;20010;-79
2022/01/02 05:29:41;;;;;;;6.93;3.67;;;11.70;99.60;;;;;;6126806;23;20098;-77
2022/01/02 05:32:06;;;;;;;6.55;3.30;;;11.70;99.60;;;;;;6126497;23;20009;-77
2022/01/02 05:34:32;;;;;;;7.18;3.45;;;11.70;99.60;;;;;;6125689;23;20014;-78
2022/01/02 05:36:57;;;;;;;5.80;3.22;;;11.70;99.60;;;;;;6126480;23;20016;-79
2022/01/02 05:39:23;;;;;;;6.15;3.20;;;11.70;99.60;;;;;;6128099;23;20002;-77
2022/01/02 05:41:50;;;;;;;7.65;3.20;;;11.70;99.60;;;;;;6125942;23;20010;-77
2022/01/02 05:44:16;;;;;;;7.07;3.50;;;11.70;99.60;;;;;;6126213;23;20013;-77
2022/01/02 05:46:42;;;;;;;6.45;3.20;;;11.70;99.60;;;;;;6126130;23;20002;-78
2022/01/02 05:49:08;;;;;;;6.70;3.45;;;11.70;99.60;;;;;;6126213;23;20013;-79
2022/01/02 05:51:34;;;;;;;7.18;3.38;;;11.70;99.60;;;;;;6127664;23;20002;-78
2022/01/02 05:54:00;;;;;;;7.97;3.40;;;11.70;99.60;;;;;;6127903;23;20006;-77
2022/01/02 05:56:26;;;;;;;8.77;3.20;;;11.70;99.60;;;;;;6127641;23;20037;-78
2022/01/02 05:58:52;;;;;;;7.40;3.08;;;11.70;99.60;;;;;;6127824;23;20394;-78
2022/01/02 06:01:17;;;;;;;8.90;3.67;;;11.70;99.60;;;;;;6126890;23;20056;-78
2022/01/02 06:03:43;;;;;;;6.35;3.30;;;11.70;99.60;;;;;;6125477;23;20032;-78
2022/01/02 06:06:08;;;;;;;10.13;3.40;;;11.70;99.60;;;;;;6127830;23;20006;-78
2022/01/02 06:08:34;;;;;;;5.95;3.15;;;11.70;99.60;;;;;;6126263;23;20126;-78
2022/01/02 06:10:59;;;;;;;8.43;3.55;;;11.70;99.60;;;;;;6125468;23;20021;-77
2022/01/02 06:13:25;;;;;;;6.65;3.30;;;11.70;99.60;;;;;;6125665;23;20540;-76
2022/01/02 06:15:51;;;;;;;6.78;3.20;;;11.70;99.60;;;;;;6127268;23;20053;-77
2022/01/02 06:18:16;;;;;;;6.82;3.30;;;11.70;99.60;;;;;;6125764;23;20010;-76
2022/01/02 06:20:42;;;;;;;6.53;3.05;;;11.70;99.60;;;;;;6125835;23;20001;-76
2022/01/02 06:23:07;;;;;;;8.40;3.40;;;11.70;99.50;;;;;;6127334;23;20448;-76
2022/01/02 06:25:33;;;;;;;5.85;2.97;;;11.70;99.50;;;;;;6126010;23;20025;-76
2022/01/02 06:27:59;;;;;;;6.63;3.28;;;11.80;99.60;;;;;;6126203;23;20006;-76
2022/01/02 06:30:25;;;;;;;6.82;3.10;;;11.70;99.50;;;;;;6125928;23;20081;-77
2022/01/02 06:32:55;;;;;;;5.85;2.88;;;11.70;99.60;;;;;;6134805;23;20029;-77
2022/01/02 06:35:25;;;;;;;6.50;3.38;;;11.70;99.60;;;;;;6156594;23;20005;-76
2022/01/02 06:37:51;;;;;;;6.72;3.30;;;11.70;99.60;;;;;;6156835;23;20044;-76
2022/01/02 06:40:16;;;;;;;5.47;3.00;;;11.70;99.60;;;;;;6130185;23;20006;-76
2022/01/02 06:42:42;;;;;;;6.30;2.95;;;11.70;99.60;;;;;;6130756;23;20028;-76
2022/01/02 06:45:07;;;;;;;6.43;2.72;;;11.70;99.60;;;;;;6130507;23;20009;-78
2022/01/02 06:47:33;;;;;;;8.73;3.10;;;11.70;99.60;;;;;;6130761;23;20008;-78
2022/01/02 06:49:58;;;;;;;7.55;3.05;;;11.70;99.60;;;;;;6130765;23;20037;-78
2022/01/02 06:52:24;;;;;;;8.80;3.30;;;11.70;99.60;;;;;;6130578;23;20005;-78
2022/01/02 06:54:53;;;;;;;5.90;2.90;;;11.70;99.60;;;;;;6131020;23;20005;-77
2022/01/02 06:57:20;;;;;;;6.53;2.85;;;11.70;99.50;;;;;;6156642;23;20005;-78
2022/01/02 06:59:46;;;;;;;6.78;3.08;;;11.70;99.60;;;;;;6130572;23;20010;-77
2022/01/02 07:02:12;;;;;;;7.82;3.03;;;11.70;99.60;;;;;;6156539;23;20001;-77
2022/01/02 07:04:37;;;;;;;7.07;2.70;;;11.70;99.50;;;;;;6156319;23;20009;-77
2022/01/02 07:07:03;;;;;;;8.27;3.08;;;11.70;99.60;;;;;;6130622;23;20002;-76
2022/01/02 07:09:31;;;;;;;8.85;3.10;;;11.70;99.50;;;;;;6155192;23;20072;-77
2022/01/02 07:11:57;;;;;;;8.70;3.10;;;11.70;99.50;;;;;;6156713;23;20005;-77
2022/01/02 07:14:26;;;;;;;6.68;3.00;;;11.80;99.50;;;;;;6130153;23;20437;-82
2022/01/02 07:16:52;;;;;;;8.35;3.28;;;11.70;99.50;;;;;;6130610;23;20006;-77
2022/01/02 07:19:18;;;;;;;7.35;2.70;;;11.70;99.50;;;;;;6130332;23;20437;-77
2022/01/02 07:21:43;;;;;;;5.85;2.58;;;11.70;99.50;;;;;;6130558;23;20010;-76
2022/01/02 07:24:09;;;;;;;7.20;3.28;;;11.70;99.50;;;;;;6130462;23;20002;-77
2022/01/02 07:26:34;;;;;;;6.10;2.83;;;11.70;99.50;;;;;;6130110;23;20021;-76
2022/01/02 07:29:00;;;;;;;6.90;2.70;;;11.70;99.50;;;;;;6130357;23;20008;-77
2022/01/02 07:31:25;;;;;;;7.18;2.78;;;11.70;99.60;;;;;;6130580;23;20076;-77
2022/01/02 07:33:51;;;;;;;7.40;2.65;;;11.70;99.60;;;;;;6129996;23;20009;-76
2022/01/02 07:36:16;;;;;;;7.13;2.95;;;11.80;99.80;;;;;;6129976;23;20010;-75
2022/01/02 07:38:42;;;;;;;7.00;3.03;;;11.80;99.60;;;;;;6130283;23;20092;-76
2022/01/02 07:41:07;;;;;;;6.00;2.70;;;11.70;99.60;;;;;;6129784;23;20044;-76
2022/01/02 07:43:33;;;;;;;7.55;3.00;;;11.70;99.60;;;;;;6130041;23;20401;-77
2022/01/02 07:45:58;;;;;;;7.32;2.80;;;11.80;99.60;;;;;;6129851;23;20002;-77
2022/01/02 07:48:24;;;;;;;7.38;3.28;;;11.80;99.60;;;;;;6155681;23;20008;-78
2022/01/02 07:50:50;;;;;;;6.82;2.70;;;11.70;99.60;;;;;;6156683;23;20024;-76
2022/01/02 07:53:15;;;;;;;7.32;2.95;;;11.80;99.60;;;;;;6130092;23;20002;-77
2022/01/02 07:55:43;;;;;;;7.07;3.03;;;11.80;99.60;;;;;;6156004;23;20008;-77
2022/01/02 07:58:09;;;;;;;8.00;3.15;;;11.80;99.60;;;;;;6130226;23;20029;-76
2022/01/02 08:00:34;;;;;;;8.20;3.05;;;11.80;99.60;;;;;;6130266;23;20005;-78
2022/01/02 08:03:00;;;;;;;6.45;2.80;;;11.80;99.70;;;;;;6130214;23;20010;-78
2022/01/02 08:05:25;;;;;;;7.40;3.00;;;11.80;99.60;;;;;;6129534;23;20005;-78
2022/01/02 08:07:51;;;;;;;7.35;3.13;;;11.80;99.70;;;;;;6130153;23;20013;-77
2022/01/02 08:10:17;;;;;;;7.63;3.10;;;11.80;99.60;;;;;;6129743;23;20006;-78
2022/01/02 08:12:42;;;;;;;8.15;3.13;;;11.80;99.70;;;;;;6127988;23;20006;-78
2022/01/02 08:15:08;;;;;;;6.93;3.00;;;11.80;99.60;;;;;;6149603;23;20006;-76
2022/01/02 08:17:34;;;;;;;8.18;3.22;;;11.80;99.60;;;;;;6123057;23;20013;-76
2022/01/02 08:20:00;;;;;;;7.93;3.50;;;11.80;99.60;;;;;;6152726;23;20028;-77
2022/01/02 08:22:26;;;;;;;7.05;3.03;;;11.80;99.50;;;;;;6126924;23;20728;-77
2022/01/02 08:24:51;;;;;;;6.05;2.65;;;11.80;99.40;;;;;;6152876;23;20048;-77
2022/01/02 08:27:17;;;;;;;8.50;3.33;;;11.80;99.40;;;;;;6153304;23;20006;-78
2022/01/02 08:29:43;;;;;;;8.25;3.25;;;11.90;99.30;;;;;;6153444;23;20002;-76
2022/01/02 08:32:08;;;;;;;5.50;2.50;;;11.90;99.30;;;;;;6152699;23;20015;-77
2022/01/02 08:34:34;;;;;;;7.70;2.90;;;11.90;99.30;;;;;;6127029;23;20440;-78
2022/01/02 08:36:59;;;;;;;8.27;3.10;;;11.90;99.20;;;;;;6127249;23;20017;-78
2022/01/02 08:39:24;;;;;;;6.97;2.67;;;11.90;99.20;;;;;;6126774;23;20088;-77
2022/01/02 08:41:50;;;;;;;6.38;2.67;;;11.90;99.50;;;;;;6127602;23;20009;-76
2022/01/02 08:44:16;;;;;;;9.98;3.00;;;11.90;99.20;;;;;;6126738;23;20468;-77
2022/01/02 08:46:41;;;;;;;7.93;2.92;;;11.90;99.20;;;;;;6153108;23;20016;-76
2022/01/02 08:49:07;;;;;;;8.32;3.22;;;11.90;99.20;;;;;;6124929;23;20535;-75
2022/01/02 08:51:32;;;;;;;8.65;2.83;;;11.90;99.20;;;;;;6127945;23;20005;-76
2022/01/02 08:53:58;;;;;;;8.00;3.20;;;11.90;99.20;;;;;;6127336;23;20013;-77
2022/01/02 08:56:23;;;;;;;6.25;2.80;;;11.90;99.20;;;;;;6127420;23;20013;-76
2022/01/02 08:58:49;;;;;;;7.68;3.20;;;11.90;99.20;;;;;;6127468;23;20008;-76
2022/01/02 09:01:14;;;;;;;8.18;2.95;;;11.90;99.20;;;;;;6153471;23;20006;-76
2022/01/02 09:03:40;;;;;;;7.25;2.88;;;11.90;99.20;;;;;;6127364;23;20044;-78
2022/01/02 09:06:05;;;;;;;7.97;2.95;;;11.90;99.30;;;;;;6126942;23;20516;-75
2022/01/02 09:08:31;;;;;;;9.02;3.63;;;11.90;99.40;;;;;;6127929;23;20006;-76
2022/01/02 09:10:56;;;;;;;6.82;3.10;;;11.90;99.50;;;;;;6127478;23;20041;-77
2022/01/02 09:13:23;;;;;;;7.53;3.22;;;11.90;99.50;;;;;;6127354;23;20037;-77
2022/01/02 09:15:50;;;;;;;8.77;3.35;;;11.90;99.50;;;;;;6126625;23;20457;-79
2022/01/02 09:18:16;;;;;;;9.65;3.00;;;11.90;99.50;;;;;;6152712;23;20345;-77
2022/01/02 09:20:43;;;;;;;10.68;3.25;;;11.90;99.70;;;;;;6127325;23;20006;-78
2022/01/02 09:23:09;;;;;;;6.68;2.92;;;11.80;99.70;;;;;;6153495;23;20487;-77
2022/01/02 09:25:34;;;;;;;8.93;3.25;;;11.80;99.70;;;;;;6126959;23;20009;-79
2022/01/02 09:28:00;;;;;;;6.68;2.97;;;11.80;99.70;;;;;;6153554;23;20061;-79
2022/01/02 09:30:25;;;;;;;10.32;3.75;;;11.80;99.70;;;;;;6153616;23;20012;-81
2022/01/02 09:32:51;;;;;;;8.68;2.90;;;11.80;99.70;;;;;;6126973;23;20010;-78
2022/01/02 09:35:16;;;;;;;7.93;2.97;;;11.80;99.70;;;;;;6153360;23;20431;-78
2022/01/02 09:37:42;;;;;;;7.22;2.80;;;11.80;99.80;;;;;;6154053;23;20085;-76
2022/01/02 09:40:08;;;;;;;11.10;3.42;;;11.80;99.80;;;;;;6124585;23;20016;-77
2022/01/02 09:45:03;;;;;;;6.35;2.80;;;11.80;99.90;;;;;;6148398;23;20032;-77
2022/01/02 09:47:31;;;;;;;7.32;3.22;;;11.80;99.90;;;;;;6125651;23;20004;-78
2022/01/02 09:49:57;;;;;;;8.63;3.30;;;11.80;99.80;;;;;;6126960;23;20009;-80
2022/01/02 09:52:23;;;;;;;8.48;2.85;;;11.80;99.80;;;;;;6124633;23;20092;-80
2022/01/02 09:54:48;;;;;;;8.13;2.80;;;11.80;99.90;;;;;;6097530;23;20092;-76
2022/01/02 09:57:14;;;;;;;8.85;3.40;;;11.80;99.90;;;;;;6097496;23;20025;-76
2022/01/02 09:59:39;;;;;;;10.38;3.30;;;11.80;99.90;;;;;;6097590;23;20002;-77
2022/01/02 10:02:05;;;;;;;8.02;2.83;;;11.80;99.90;;;;;;6098902;23;20017;-77
2022/01/02 10:04:36;;;;;;;8.68;2.80;;;11.80;99.90;;;;;;6100943;23;20018;-78
2022/01/02 10:07:02;;;;;;;10.43;3.37;;;11.80;99.80;;;;;;6098824;23;20013;-78
2022/01/02 10:09:36;;;;;;;7.63;2.72;;;11.80;99.80;;;;;;6124846;23;20017;-78
2022/01/02 10:12:30;;;;;;;7.80;3.00;;;11.80;99.80;;;;;;6096266;23;20002;-78
2022/01/02 10:15:19;;;;;;;8.90;3.03;;;11.80;99.80;;;;;;6097385;23;20517;-79
2022/01/02 10:17:57;;;;;;;7.47;3.10;;;11.80;99.80;;;;;;6097807;23;20084;-77
2022/01/02 10:20:25;;;;;;;7.22;2.70;;;11.80;99.80;;;;;;6097555;23;20013;-78
2022/01/02 10:23:08;;;;;;;8.55;3.00;;;11.80;99.70;;;;;;6097735;23;20010;-77
2022/01/02 10:25:42;;;;;;;8.43;3.13;;;11.80;99.70;;;;;;6098100;23;20008;-77
2022/01/02 10:28:26;;;;;;;9.00;2.75;;;11.80;99.70;;;;;;6123462;23;20025;-76
2022/01/02 10:30:58;;;;;;;8.68;2.97;;;11.80;99.60;;;;;;6097392;23;20069;-78
2022/01/02 10:33:25;;;;;;;8.80;3.03;;;11.90;99.70;;;;;;6093870;23;20010;-76
2022/01/02 10:35:59;;;;;;;8.60;3.00;;;11.80;99.60;;;;;;6123477;23;20009;-77
2022/01/02 10:38:24;;;;;;;9.90;2.80;;;11.90;99.60;;;;;;6097198;23;20006;-80
2022/01/02 10:40:50;;;;;;;8.73;2.67;;;11.90;99.50;;;;;;6097090;23;20012;-78
2022/01/02 10:43:28;;;;;;;9.20;2.78;;;11.90;99.50;;;;;;6122307;23;20744;-78
2022/01/02 10:45:55;;;;;;;9.50;3.45;;;11.90;99.40;;;;;;6096173;23;20056;-78
2022/01/02 10:48:36;;;;;;;6.93;2.50;;;11.90;99.30;;;;;;6121832;23;19998;-77
2022/01/02 10:51:04;;;;;;;10.00;2.63;;;11.90;99.40;;;;;;6122172;23;20639;-77
2022/01/02 10:53:31;;;;;;;8.50;3.00;;;11.90;99.30;;;;;;6095307;23;20026;-77
2022/01/02 10:55:58;;;;;;;6.65;2.38;;;11.90;99.20;;;;;;6096201;23;20013;-77
2022/01/02 10:58:26;;;;;;;8.35;2.75;;;11.90;99.20;;;;;;6122326;23;20450;-76
2022/01/02 11:00:53;;;;;;;7.18;2.70;;;11.90;99.20;;;;;;6096748;23;20014;-76
2022/01/02 11:03:24;;;;;;;6.22;2.33;;;11.90;99.20;;;;;;6096207;23;20006;-78
2022/01/02 11:05:56;;;;;;;6.28;2.60;;;11.90;99.10;;;;;;6122015;23;20521;-75
2022/01/02 11:08:24;;;;;;;8.55;3.10;;;11.90;99.20;;;;;;6096130;23;20002;-78
2022/01/02 11:10:50;;;;;;;8.95;2.92;;;11.90;99.10;;;;;;6096406;23;20384;-77
2022/01/02 11:13:18;;;;;;;7.63;2.90;;;11.90;99.20;;;;;;6096136;23;20010;-78
2022/01/02 11:15:43;;;;;;;8.02;2.58;;;11.90;99.20;;;;;;6120393;23;20006;-77
2022/01/02 11:18:10;;;;;;;7.38;2.35;;;11.90;99.20;;;;;;6121654;23;20009;-77
2022/01/02 11:20:36;;;;;;;5.28;2.30;;;11.80;99.10;;;;;;6095284;23;20029;-77
2022/01/02 11:23:33;;;;;;;6.70;2.47;;;11.90;99.20;;;;;;6095830;23;20025;-77
2022/01/02 11:26:20;;;;;;;8.15;2.42;;;11.80;99.20;;;;;;6095791;23;20100;-77
2022/01/02 11:28:48;;;;;;;7.30;2.80;;;11.90;99.20;;;;;;6095639;23;20145;-79
2022/01/02 11:31:33;;;;;;;8.40;2.80;;;11.80;99.10;;;;;;6095978;23;20497;-78
2022/01/02 11:33:59;;;;;;;7.53;2.47;;;11.90;99.20;;;;;;6118675;23;20461;-76
2022/01/02 11:36:32;;;;;;;7.20;2.67;;;11.90;99.20;;;;;;6121719;23;20025;-78
2022/01/02 11:39:03;;;;;;;6.32;2.50;;;11.90;99.10;;;;;;6096246;23;20345;-77
2022/01/02 11:41:40;;;;;;;;;;;11.90;99.10;;;;;;6123910;23;20017;-78
2022/01/02 11:44:08;;;;;;;8.35;2.28;;;11.90;99.10;;;;;;6099074;23;20392;-80
2022/01/02 11:46:57;;;;;;;8.30;2.70;;;11.90;99.00;;;;;;6094070;23;19998;-77
2022/01/02 11:49:38;;;;;;;6.13;2.35;;;11.90;99.00;;;;;;6096552;23;20465;-79
2022/01/02 11:52:06;;;;;;;8.10;2.88;;;12.00;99.00;;;;;;6096874;23;20006;-79
2022/01/02 11:54:32;;;;;;;6.97;2.40;;;12.00;98.80;;;;;;6096057;23;20429;-79
2022/01/02 11:57:23;;;;;;;6.68;2.28;;;12.10;98.70;;;;;;6096566;23;20512;-78
2022/01/02 11:59:48;;;;;;;7.55;2.40;;;12.10;98.60;;;;;;6081605;23;20012;-79
2022/01/02 12:02:24;;;;;;;8.35;2.40;;;12.30;98.60;;;;;;6095746;23;20010;-79
2022/01/02 12:05:03;;;;;;;6.72;2.35;;;12.30;98.00;;;;;;6095241;23;20010;-79
2022/01/02 12:07:34;;;;;;;6.20;2.22;;;12.50;97.70;;;;;;6122538;23;19998;-78
2022/01/02 12:10:21;;;;;;;6.63;2.70;;;12.50;97.50;;;;;;6122945;23;20002;-80
2022/01/02 12:12:59;;;;;;;6.97;2.58;;;12.60;97.30;;;;;;6096497;23;20441;-76
2022/01/02 12:15:34;;;;;;;6.82;2.65;;;12.60;97.10;;;;;;6096058;23;20069;-79
2022/01/02 12:18:07;;;;;;;7.53;2.88;;;12.50;97.20;;;;;;6096218;23;20009;-78
2022/01/02 12:20:54;;;;;;;7.82;2.60;;;12.50;97.20;;;;;;6096453;23;20017;-79
2022/01/02 12:23:34;;;;;;;7.22;2.75;;;12.60;97.30;;;;;;6096075;23;20013;-78
2022/01/02 12:26:09;;;;;;;9.18;3.28;;;12.50;97.20;;;;;;6095621;23;20002;-78
2022/01/02 12:28:40;;;;;;;8.00;2.90;;;12.40;97.30;;;;;;6095443;23;20311;-76
2022/01/02 12:31:07;;;;;;;9.02;3.25;;;12.40;97.40;;;;;;6095376;23;20009;-77
2022/01/02 12:33:35;;;;;;;7.07;3.00;;;12.40;97.50;;;;;;6120986;23;20006;-77
2022/01/02 12:36:21;;;;;;;7.38;2.83;;;12.30;97.50;;;;;;6121814;23;20056;-76
2022/01/02 12:38:51;;;;;;;8.95;2.90;;;12.30;97.50;;;;;;6121444;23;20433;-77
2022/01/02 12:41:19;;;;;;;8.23;3.00;;;12.30;97.50;;;;;;6095652;23;20014;-77
2022/01/02 12:43:56;;;;;;;6.65;2.80;;;12.30;97.50;;;;;;6121260;23;20006;-77
2022/01/02 12:46:44;;;;;;;7.78;2.90;;;12.30;97.50;;;;;;6095028;23;20385;-77
2022/01/02 12:49:28;;;;;;;6.38;2.88;;;12.30;97.40;;;;;;6121029;23;20058;-79
2022/01/02 12:52:11;;;;;;;10.73;3.20;;;12.30;97.30;;;;;;6094640;23;20593;-77
2022/01/02 12:54:44;;;;;;;9.00;3.25;;;12.30;97.30;;;;;;6094582;23;20327;-78
2022/01/02 12:57:13;;;;;;;7.55;3.30;;;12.30;97.30;;;;;;6095081;23;20036;-79
2022/01/02 12:59:39;;;;;;;10.10;3.70;;;12.30;97.30;;;;;;6120973;23;20005;-80
2022/01/02 13:02:06;;;;;;;7.45;3.30;;;12.30;97.30;;;;;;6121506;23;20002;-78
2022/01/02 13:04:43;;;;;;;7.65;3.78;;;12.30;97.30;;;;;;6094662;23;20010;-77